Time;durP1;ratioP1;P1;durP2;ratioP2;P2;SDS_P1;SDS_P2;PMS_P1;PMS_P2;Temp;Humidity;BMP_temperature;BMP_pressure;BME280_temperature;BME280_humidity;BME280_pressure;Samples;Min_cycle;Max_cycle;Signal;HPM_P1;HPM_P2
2024/04/17 00:00:07;;;;;;;;;2.50;1.00;;;;;;;;5450790;26;10635;-86
2024/04/17 00:02:39;;;;;;;;;1.50;1.00;;;;;;;;5451480;26;10660;-86
2024/04/17 00:05:06;;;;;;;;;0.00;0.00;;;;;;;;5450725;26;10630;-84
2024/04/17 00:07:34;;;;;;;;;0.00;0.00;;;;;;;;5451110;26;10660;-85
2024/04/17 00:10:01;;;;;;;;;1.00;1.00;;;;;;;;5448848;26;11327;-86
2024/04/17 00:12:30;;;;;;;;;1.00;1.00;;;;;;;;5432170;26;10674;-87
2024/04/17 00:14:56;;;;;;;;;1.00;1.00;;;;;;;;5451360;26;10525;-86
2024/04/17 00:17:25;;;;;;;;;1.00;1.00;;;;;;;;5449974;26;10515;-87
2024/04/17 00:19:54;;;;;;;;;0.00;0.00;;;;;;;;5450773;26;10608;-86
2024/04/17 00:22:26;;;;;;;;;0.00;0.00;;;;;;;;5434795;26;10581;-86
2024/04/17 00:24:52;;;;;;;;;1.25;0.50;;;;;;;;5448168;26;10608;-86
2024/04/17 00:27:21;;;;;;;;;0.00;0.00;;;;;;;;5433131;26;10472;-86
2024/04/17 00:29:47;;;;;;;;;3.00;1.00;;;;;;;;5448892;26;10529;-86
2024/04/17 00:32:16;;;;;;;;;0.50;0.50;;;;;;;;5431088;26;10582;-86
2024/04/17 00:34:42;;;;;;;;;3.00;1.00;;;;;;;;5449204;26;10622;-86
2024/04/17 00:37:14;;;;;;;;;1.00;1.00;;;;;;;;5451193;26;10552;-86
2024/04/17 00:39:42;;;;;;;;;1.00;1.00;;;;;;;;5419591;26;10563;-86
2024/04/17 00:42:11;;;;;;;;;1.00;1.00;;;;;;;;5417405;26;10737;-86
2024/04/17 00:44:37;;;;;;;;;0.00;0.00;;;;;;;;5450844;26;10564;-87
2024/04/17 00:47:08;;;;;;;;;1.00;1.00;;;;;;;;5429808;26;10600;-86
2024/04/17 00:49:35;;;;;;;;;1.00;1.00;;;;;;;;5430732;26;10562;-88
2024/04/17 00:52:04;;;;;;;;;2.00;1.25;;;;;;;;5430921;26;10641;-85
2024/04/17 00:54:33;;;;;;;;;1.00;1.00;;;;;;;;5422285;26;10643;-88
2024/04/17 00:57:02;;;;;;;;;1.00;1.00;;;;;;;;5445482;26;10623;-88
2024/04/17 00:59:29;;;;;;;;;1.00;1.00;;;;;;;;5434734;26;10707;-88
2024/04/17 01:01:58;;;;;;;;;1.50;1.25;;;;;;;;5433204;26;10606;-86
2024/04/17 01:04:24;;;;;;;;;2.00;0.50;;;;;;;;5453723;26;10796;-86
2024/04/17 01:06:53;;;;;;;;;2.00;1.00;;;;;;;;5429996;26;10807;-85
2024/04/17 01:09:21;;;;;;;;;1.00;1.00;;;;;;;;5450636;26;11621;-87
2024/04/17 01:11:57;;;;;;;;;1.00;1.00;;;;;;;;5449620;26;10931;-86
2024/04/17 01:14:24;;;;;;;;;1.50;1.50;;;;;;;;5450559;26;10770;-85
2024/04/17 01:16:53;;;;;;;;;2.00;2.00;;;;;;;;5442352;26;10981;-85
2024/04/17 01:19:19;;;;;;;;;2.25;2.25;;;;;;;;5437652;26;10922;-85
2024/04/17 01:21:48;;;;;;;;;2.00;2.00;;;;;;;;5428901;26;11000;-85
2024/04/17 01:24:16;;;;;;;;;2.00;2.00;;;;;;;;5429062;26;11009;-85
2024/04/17 01:26:45;;;;;;;;;1.75;1.75;;;;;;;;5449696;26;11075;-85
2024/04/17 01:29:12;;;;;;;;;0.25;0.00;;;;;;;;5440659;26;11952;-86
2024/04/17 01:31:40;;;;;;;;;3.25;1.25;;;;;;;;5443128;26;10771;-85
2024/04/17 01:34:07;;;;;;;;;1.25;1.25;;;;;;;;5445609;26;11273;-85
2024/04/17 01:36:36;;;;;;;;;1.00;1.00;;;;;;;;5455623;26;11157;-84
2024/04/17 01:39:02;;;;;;;;;1.00;1.00;;;;;;;;5449866;26;11143;-85
2024/04/17 01:41:34;;;;;;;;;3.75;3.75;;;;;;;;5416808;26;11009;-84
2024/04/17 01:44:00;;;;;;;;;1.00;1.00;;;;;;;;5441234;26;11235;-85
2024/04/17 01:46:29;;;;;;;;;1.00;1.00;;;;;;;;5449287;26;11468;-85
2024/04/17 01:48:55;;;;;;;;;1.00;1.00;;;;;;;;5427149;26;11228;-84
2024/04/17 01:51:24;;;;;;;;;3.00;2.00;;;;;;;;5449413;26;11203;-85
2024/04/17 01:53:50;;;;;;;;;2.00;2.00;;;;;;;;5449828;26;11545;-84
2024/04/17 01:56:19;;;;;;;;;1.00;1.00;;;;;;;;5450079;26;11544;-85
2024/04/17 01:58:48;;;;;;;;;4.00;2.75;;;;;;;;5428323;26;11542;-85
2024/04/17 02:01:17;;;;;;;;;3.00;1.25;;;;;;;;5449678;26;11332;-85
2024/04/17 02:03:43;;;;;;;;;1.75;1.75;;;;;;;;5449232;26;11507;-85
2024/04/17 02:06:15;;;;;;;;;2.50;1.25;;;;;;;;5449830;26;11512;-85
2024/04/17 02:08:42;;;;;;;;;5.50;3.00;;;;;;;;5444402;26;11469;-85
2024/04/17 02:11:10;;;;;;;;;2.00;2.00;;;;;;;;5434083;26;11601;-85
2024/04/17 02:13:37;;;;;;;;;3.25;2.00;;;;;;;;5449334;26;11463;-86
2024/04/17 02:16:09;;;;;;;;;2.00;2.00;;;;;;;;5449444;26;11584;-86
2024/04/17 02:18:35;;;;;;;;;1.25;1.25;;;;;;;;5428205;26;11525;-86
2024/04/17 02:21:04;;;;;;;;;2.00;2.00;;;;;;;;5449622;26;11590;-86
2024/04/17 02:23:30;;;;;;;;;1.00;1.00;;;;;;;;5447898;26;11515;-86
2024/04/17 02:26:00;;;;;;;;;3.50;2.00;;;;;;;;5449345;26;11501;-86
2024/04/17 02:28:26;;;;;;;;;2.50;2.50;;;;;;;;5449013;26;11479;-87
2024/04/17 02:30:55;;;;;;;;;6.00;2.00;;;;;;;;5448712;26;11222;-86
2024/04/17 02:33:26;;;;;;;;;2.00;2.00;;;;;;;;5452222;26;11483;-86
2024/04/17 02:35:55;;;;;;;;;2.75;2.00;;;;;;;;5451827;26;11630;-86
2024/04/17 02:38:21;;;;;;;;;1.75;1.75;;;;;;;;5419155;26;11487;-85
2024/04/17 02:40:50;;;;;;;;;2.00;2.00;;;;;;;;5445357;26;11566;-86
2024/04/17 02:43:16;;;;;;;;;3.75;3.00;;;;;;;;5452714;26;11562;-86
2024/04/17 02:45:45;;;;;;;;;3.25;2.25;;;;;;;;5453307;26;11499;-86
2024/04/17 02:48:15;;;;;;;;;4.00;4.00;;;;;;;;5454408;26;11505;-85
2024/04/17 02:50:46;;;;;;;;;6.00;3.00;;;;;;;;5435388;26;11619;-86
2024/04/17 02:53:13;;;;;;;;;3.50;2.75;;;;;;;;5453259;26;11564;-84
2024/04/17 02:55:42;;;;;;;;;4.50;3.00;;;;;;;;5448691;26;12281;-84
2024/04/17 02:58:08;;;;;;;;;2.00;2.00;;;;;;;;5444858;26;11465;-85
2024/04/17 03:00:37;;;;;;;;;2.00;2.00;;;;;;;;5451716;26;12306;-85
2024/04/17 03:03:05;;;;;;;;;3.25;3.00;;;;;;;;5450565;26;11549;-86
2024/04/17 03:05:36;;;;;;;;;2.25;2.00;;;;;;;;5451942;26;11493;-85
2024/04/17 03:08:05;;;;;;;;;2.25;2.25;;;;;;;;5452044;26;11556;-84
2024/04/17 03:10:34;;;;;;;;;2.00;2.00;;;;;;;;5451715;26;11299;-85
2024/04/17 03:13:03;;;;;;;;;1.50;1.50;;;;;;;;5430055;26;11513;-84
2024/04/17 03:15:29;;;;;;;;;2.25;2.25;;;;;;;;5442548;26;11489;-86
2024/04/17 03:17:59;;;;;;;;;2.00;2.00;;;;;;;;5442797;26;11476;-86
2024/04/17 03:20:25;;;;;;;;;3.25;2.75;;;;;;;;5451778;26;11501;-85
2024/04/17 03:22:54;;;;;;;;;2.00;2.00;;;;;;;;5440794;26;11528;-86
2024/04/17 03:25:23;;;;;;;;;2.00;2.00;;;;;;;;5438414;26;11512;-85
2024/04/17 03:27:52;;;;;;;;;2.00;2.00;;;;;;;;5453685;26;11525;-86
2024/04/17 03:30:20;;;;;;;;;2.00;2.00;;;;;;;;5452443;26;12268;-85
2024/04/17 03:32:49;;;;;;;;;1.25;1.25;;;;;;;;5445523;26;11517;-83
2024/04/17 03:35:15;;;;;;;;;3.00;3.00;;;;;;;;5451181;26;11553;-85
2024/04/17 03:37:44;;;;;;;;;3.00;3.00;;;;;;;;5448406;26;11539;-87
2024/04/17 03:40:13;;;;;;;;;2.00;2.00;;;;;;;;5443544;26;11480;-86
2024/04/17 03:42:45;;;;;;;;;3.00;3.00;;;;;;;;5446252;26;11497;-85
2024/04/17 03:45:14;;;;;;;;;1.00;1.00;;;;;;;;5452110;26;11489;-86
2024/04/17 03:47:48;;;;;;;;;2.00;2.00;;;;;;;;5450601;26;11562;-89
2024/04/17 03:50:18;;;;;;;;;3.00;3.00;;;;;;;;5448535;26;11496;-87
2024/04/17 03:52:44;;;;;;;;;2.75;2.25;;;;;;;;5430325;26;11552;-84
2024/04/17 03:55:16;;;;;;;;;4.75;4.00;;;;;;;;5457400;26;11614;-86
2024/04/17 03:57:45;;;;;;;;;4.50;4.50;;;;;;;;5454908;26;11572;-87
2024/04/17 04:00:15;;;;;;;;;5.25;3.25;;;;;;;;5439873;26;11518;-88
2024/04/17 04:02:41;;;;;;;;;1.50;1.50;;;;;;;;5439189;26;11621;-88
2024/04/17 04:05:10;;;;;;;;;1.25;1.25;;;;;;;;5451004;26;11490;-87
2024/04/17 04:07:38;;;;;;;;;2.50;2.50;;;;;;;;5451070;26;11485;-88
2024/04/17 04:10:07;;;;;;;;;2.00;2.00;;;;;;;;5449770;26;11489;-85
2024/04/17 04:12:33;;;;;;;;;4.25;3.00;;;;;;;;5447790;26;11540;-83
2024/04/17 04:15:06;;;;;;;;;2.50;2.50;;;;;;;;5445034;26;11492;-84
2024/04/17 04:17:33;;;;;;;;;3.00;1.00;;;;;;;;5451756;26;11536;-85
2024/04/17 04:20:02;;;;;;;;;2.00;2.00;;;;;;;;5437381;26;11470;-85
2024/04/17 04:22:28;;;;;;;;;3.00;3.00;;;;;;;;5436334;26;11510;-86
2024/04/17 04:24:59;;;;;;;;;2.00;2.00;;;;;;;;5447082;26;11480;-86
2024/04/17 04:27:28;;;;;;;;;4.50;3.00;;;;;;;;5451996;26;11497;-84
2024/04/17 04:30:00;;;;;;;;;1.75;1.75;;;;;;;;5442648;26;11483;-87
2024/04/17 04:32:29;;;;;;;;;3.00;3.00;;;;;;;;5425024;26;11512;-85
2024/04/17 04:35:01;;;;;;;;;2.50;2.50;;;;;;;;5440907;26;11545;-85
2024/04/17 04:37:29;;;;;;;;;2.75;2.00;;;;;;;;5450693;26;11487;-86
2024/04/17 04:40:02;;;;;;;;;6.00;2.00;;;;;;;;5444705;26;11581;-84
2024/04/17 04:42:28;;;;;;;;;2.75;2.75;;;;;;;;5437208;26;11508;-85
2024/04/17 04:45:00;;;;;;;;;2.75;2.75;;;;;;;;5444513;26;11502;-85
2024/04/17 04:47:29;;;;;;;;;2.00;2.00;;;;;;;;5434797;26;11525;-85
2024/04/17 04:49:58;;;;;;;;;6.00;3.00;;;;;;;;5451627;26;11468;-84
2024/04/17 04:52:24;;;;;;;;;2.25;2.00;;;;;;;;5433240;26;11626;-84
2024/04/17 04:54:53;;;;;;;;;2.25;2.25;;;;;;;;5442630;26;11461;-84
2024/04/17 04:57:22;;;;;;;;;3.00;3.00;;;;;;;;5450109;26;11497;-85
2024/04/17 04:59:52;;;;;;;;;2.00;2.00;;;;;;;;5421141;26;11534;-90
2024/04/17 05:02:38;;;;;;;;;2.00;2.00;;;;;;;;5417054;26;11299;-85
2024/04/17 05:05:07;;;;;;;;;2.50;2.50;;;;;;;;5430546;26;12327;-84
2024/04/17 05:07:38;;;;;;;;;2.00;2.00;;;;;;;;5428676;26;11531;-84
2024/04/17 05:10:08;;;;;;;;;3.75;3.75;;;;;;;;5433089;26;11501;-75
2024/04/17 05:12:36;;;;;;;;;2.00;2.00;;;;;;;;5428151;26;11481;-80
2024/04/17 05:15:07;;;;;;;;;3.25;3.25;;;;;;;;5435166;26;11539;-79
2024/04/17 05:17:33;;;;;;;;;4.50;2.75;;;;;;;;5443912;26;11522;-80
2024/04/17 05:20:05;;;;;;;;;3.00;3.00;;;;;;;;5420234;26;11263;-79
2024/04/17 05:22:33;;;;;;;;;7.50;4.00;;;;;;;;5430296;26;11574;-78
2024/04/17 05:25:02;;;;;;;;;3.00;3.00;;;;;;;;5447358;26;11576;-76
2024/04/17 05:27:29;;;;;;;;;4.00;4.00;;;;;;;;5430306;26;11652;-78
2024/04/17 05:30:00;;;;;;;;;2.50;2.25;;;;;;;;5424331;26;11617;-77
2024/04/17 05:32:29;;;;;;;;;3.00;3.00;;;;;;;;5433931;26;11876;-79
2024/04/17 05:35:04;;;;;;;;;2.00;2.00;;;;;;;;5447310;26;11353;-81
2024/04/17 05:37:30;;;;;;;;;5.00;5.00;;;;;;;;5434210;26;11210;-78
2024/04/17 05:39:59;;;;;;;;;2.75;2.75;;;;;;;;5447554;26;11549;-78
2024/04/17 05:42:26;;;;;;;;;2.75;2.75;;;;;;;;5440290;26;11261;-78
2024/04/17 05:44:59;;;;;;;;;3.50;3.50;;;;;;;;5442522;26;11508;-79
2024/04/17 05:47:27;;;;;;;;;4.50;4.50;;;;;;;;5425124;26;11667;-79
2024/04/17 05:49:56;;;;;;;;;1.00;1.00;;;;;;;;5444857;26;11182;-81
2024/04/17 05:52:26;;;;;;;;;2.50;2.50;;;;;;;;5447616;26;11226;-79
2024/04/17 05:54:55;;;;;;;;;4.25;4.25;;;;;;;;5447425;26;10895;-79
2024/04/17 05:57:24;;;;;;;;;6.25;4.00;;;;;;;;5447566;26;11198;-83
2024/04/17 05:59:52;;;;;;;;;4.00;4.00;;;;;;;;5447698;26;11202;-85
2024/04/17 06:02:22;;;;;;;;;4.75;3.25;;;;;;;;5447212;26;10708;-79
2024/04/17 06:04:51;;;;;;;;;5.00;5.00;;;;;;;;5447469;26;11196;-79
2024/04/17 06:07:25;;;;;;;;;5.00;4.00;;;;;;;;5450370;26;11106;-82
2024/04/17 06:09:57;;;;;;;;;2.50;2.50;;;;;;;;5451887;26;11803;-82
2024/04/17 06:12:23;;;;;;;;;5.00;5.00;;;;;;;;5451832;26;11099;-82
2024/04/17 06:14:52;;;;;;;;;4.00;4.00;;;;;;;;5453162;26;11900;-85
2024/04/17 06:17:44;;;;;;;;;4.25;4.25;;;;;;;;5451307;26;11131;-87
2024/04/17 06:20:16;;;;;;;;;5.00;5.00;;;;;;;;5452679;26;11269;-86
2024/04/17 06:23:04;;;;;;;;;5.50;4.00;;;;;;;;5431166;26;11206;-86
2024/04/17 06:25:36;;;;;;;;;4.25;4.25;;;;;;;;5425403;26;11132;-81
2024/04/17 06:28:07;;;;;;;;;6.00;4.00;;;;;;;;5453048;26;11147;-76
2024/04/17 06:30:42;;;;;;;;;8.25;5.75;;;;;;;;5444692;26;10966;-76
2024/04/17 06:33:09;;;;;;;;;4.00;4.00;;;;;;;;5445390;26;11086;-75
2024/04/17 06:35:39;;;;;;;;;3.50;3.50;;;;;;;;5450114;26;11161;-80
2024/04/17 06:38:08;;;;;;;;;6.50;4.00;;;;;;;;5448779;26;11069;-77
2024/04/17 06:40:42;;;;;;;;;5.25;4.50;;;;;;;;5444932;26;11101;-77
2024/04/17 06:43:29;;;;;;;;;1.25;1.25;;;;;;;;5446948;26;12374;-77
2024/04/17 06:45:58;;;;;;;;;3.75;3.75;;;;;;;;5440459;26;10946;-76
2024/04/17 06:48:25;;;;;;;;;5.25;5.25;;;;;;;;5447244;26;11020;-77
2024/04/17 06:50:53;;;;;;;;;5.25;3.50;;;;;;;;5449797;26;11122;-76
2024/04/17 06:53:22;;;;;;;;;8.00;3.25;;;;;;;;5419400;26;10945;-76
2024/04/17 06:55:51;;;;;;;;;3.75;3.75;;;;;;;;5436692;26;11034;-76
2024/04/17 06:58:17;;;;;;;;;3.50;3.50;;;;;;;;5429478;26;10929;-76
2024/04/17 07:00:46;;;;;;;;;3.00;3.00;;;;;;;;5431816;26;10671;-78
2024/04/17 07:03:12;;;;;;;;;3.50;3.50;;;;;;;;5427562;26;10940;-77
2024/04/17 07:05:50;;;;;;;;;4.25;4.25;;;;;;;;5427404;26;10948;-84
2024/04/17 07:08:16;;;;;;;;;3.00;3.00;;;;;;;;5417297;26;11029;-77
2024/04/17 07:10:48;;;;;;;;;1.25;1.00;;;;;;;;5416959;26;10793;-77
2024/04/17 07:13:17;;;;;;;;;4.75;2.00;;;;;;;;5430478;26;10698;-77
2024/04/17 07:15:46;;;;;;;;;3.00;1.50;;;;;;;;5448953;26;10884;-77
2024/04/17 07:18:12;;;;;;;;;1.75;1.75;;;;;;;;5449054;26;10721;-77
2024/04/17 07:20:42;;;;;;;;;2.00;2.00;;;;;;;;5449086;26;10789;-77
2024/04/17 07:23:09;;;;;;;;;5.00;3.00;;;;;;;;5449819;26;10629;-78
2024/04/17 07:25:40;;;;;;;;;3.00;2.75;;;;;;;;5425911;26;10758;-76
2024/04/17 07:28:09;;;;;;;;;2.00;2.00;;;;;;;;5450693;26;10846;-79
2024/04/17 07:30:41;;;;;;;;;2.25;2.00;;;;;;;;5440942;26;11527;-80
2024/04/17 07:33:07;;;;;;;;;3.50;3.00;;;;;;;;5439384;26;10828;-81
2024/04/17 07:35:36;;;;;;;;;6.00;3.00;;;;;;;;5450869;26;10736;-82
2024/04/17 07:38:02;;;;;;;;;4.00;4.00;;;;;;;;5427661;26;10787;-81
2024/04/17 07:40:34;;;;;;;;;7.25;3.00;;;;;;;;5449819;26;10853;-80
2024/04/17 07:43:00;;;;;;;;;2.25;2.00;;;;;;;;5449078;26;10827;-84
2024/04/17 07:45:32;;;;;;;;;2.00;1.00;;;;;;;;5450191;26;10602;-80
2024/04/17 07:47:58;;;;;;;;;2.50;2.50;;;;;;;;5449589;26;10553;-81
2024/04/17 07:50:29;;;;;;;;;2.50;2.50;;;;;;;;5450014;26;10655;-85
2024/04/17 07:52:56;;;;;;;;;2.75;2.75;;;;;;;;5451318;26;10656;-86
2024/04/17 07:55:25;;;;;;;;;4.00;2.00;;;;;;;;5451976;26;10470;-83
2024/04/17 07:57:51;;;;;;;;;2.00;2.00;;;;;;;;5449128;26;10505;-81
2024/04/17 08:00:20;;;;;;;;;4.50;3.00;;;;;;;;5419292;26;10496;-86
2024/04/17 08:02:49;;;;;;;;;1.00;1.00;;;;;;;;5446714;26;10531;-88
2024/04/17 08:05:18;;;;;;;;;2.00;2.00;;;;;;;;5454251;26;10470;-86
2024/04/17 08:07:44;;;;;;;;;1.50;1.00;;;;;;;;5434772;26;10455;-87
2024/04/17 08:10:13;;;;;;;;;4.25;2.00;;;;;;;;5454943;26;10205;-84
2024/04/17 08:12:40;;;;;;;;;2.25;2.00;;;;;;;;5427411;26;10495;-80
2024/04/17 08:15:10;;;;;;;;;1.00;1.00;;;;;;;;5431732;26;10097;-81
2024/04/17 08:17:36;;;;;;;;;1.00;1.00;;;;;;;;5445058;26;10411;-79
2024/04/17 08:20:08;;;;;;;;;0.75;0.75;;;;;;;;5449098;26;10937;-80
2024/04/17 08:22:35;;;;;;;;;1.00;1.00;;;;;;;;5448276;26;9935;-79
2024/04/17 08:25:04;;;;;;;;;1.75;1.75;;;;;;;;5448829;26;9945;-80
2024/04/17 08:27:30;;;;;;;;;2.00;1.00;;;;;;;;5425521;26;9806;-83
2024/04/17 08:29:59;;;;;;;;;0.00;0.00;;;;;;;;5427611;26;9903;-80
2024/04/17 08:32:25;;;;;;;;;0.00;0.00;;;;;;;;5443175;26;9716;-80
2024/04/17 08:35:03;;;;;;;;;0.50;0.50;;;;;;;;5448450;26;9795;-79
2024/04/17 08:37:32;;;;;;;;;1.25;0.00;;;;;;;;5440448;26;9699;-85
2024/04/17 08:40:09;;;;;;;;;0.25;0.25;;;;;;;;5425325;26;9635;-80
2024/04/17 08:42:36;;;;;;;;;0.75;0.75;;;;;;;;5422010;26;9824;-83
2024/04/17 08:45:11;;;;;;;;;2.25;2.25;;;;;;;;5446703;26;9652;-79
2024/04/17 08:47:39;;;;;;;;;0.25;0.25;;;;;;;;5437688;26;9743;-79
2024/04/17 08:50:10;;;;;;;;;1.00;1.00;;;;;;;;5432790;26;9705;-79
2024/04/17 08:52:40;;;;;;;;;1.00;1.00;;;;;;;;5448383;26;10033;-82
2024/04/17 08:55:09;;;;;;;;;1.00;1.00;;;;;;;;5415780;26;9427;-82
2024/04/17 08:57:35;;;;;;;;;2.33;1.00;;;;;;;;5414737;26;9324;-79
2024/04/17 09:00:05;;;;;;;;;2.00;1.00;;;;;;;;5425867;26;9298;-80
2024/04/17 09:02:33;;;;;;;;;0.33;0.33;;;;;;;;5425138;26;9223;-81
2024/04/17 09:05:03;;;;;;;;;1.33;0.00;;;;;;;;5448986;26;9381;-80
2024/04/17 09:07:29;;;;;;;;;0.33;0.33;;;;;;;;5423247;26;9085;-80
2024/04/17 09:10:01;;;;;;;;;0.00;0.00;;;;;;;;5428559;26;9277;-81
2024/04/17 09:12:28;;;;;;;;;0.00;0.00;;;;;;;;5421655;26;9196;-81
2024/04/17 09:14:57;;;;;;;;;1.00;1.00;;;;;;;;5430030;26;9090;-80
2024/04/17 09:17:23;;;;;;;;;0.33;0.33;;;;;;;;5442845;26;9075;-79
2024/04/17 09:19:52;;;;;;;;;0.25;0.25;;;;;;;;5430412;26;9024;-81
2024/04/17 09:22:22;;;;;;;;;0.00;0.00;;;;;;;;5442053;26;8836;-79
2024/04/17 09:24:51;;;;;;;;;0.00;0.00;;;;;;;;5433090;26;9640;-78
2024/04/17 09:27:21;;;;;;;;;3.25;0.00;;;;;;;;5420546;26;8824;-80
2024/04/17 09:29:51;;;;;;;;;0.00;0.00;;;;;;;;5438456;26;9032;-82
2024/04/17 09:32:18;;;;;;;;;0.00;0.00;;;;;;;;5426794;26;8803;-82
2024/04/17 09:34:47;;;;;;;;;0.00;0.00;;;;;;;;5427453;26;8844;-82
2024/04/17 09:37:13;;;;;;;;;1.00;1.00;;;;;;;;5426786;26;8816;-84
2024/04/17 09:39:43;;;;;;;;;1.00;1.00;;;;;;;;5449308;26;8852;-83
2024/04/17 09:42:09;;;;;;;;;1.00;1.00;;;;;;;;5450309;26;8855;-87
2024/04/17 09:44:42;;;;;;;;;0.50;0.50;;;;;;;;5430674;26;8843;-86
2024/04/17 09:47:10;;;;;;;;;0.00;0.00;;;;;;;;5419948;26;8816;-85
2024/04/17 09:49:40;;;;;;;;;0.50;0.50;;;;;;;;5445096;26;8843;-86
2024/04/17 09:52:10;;;;;;;;;0.00;0.00;;;;;;;;5454784;26;8824;-86
2024/04/17 09:54:40;;;;;;;;;1.00;0.00;;;;;;;;5454451;26;8832;-84
2024/04/17 09:57:08;;;;;;;;;4.00;1.00;;;;;;;;5456118;26;8847;-82
2024/04/17 09:59:39;;;;;;;;;0.75;0.75;;;;;;;;5451667;26;8904;-82
2024/04/17 10:02:14;;;;;;;;;0.00;0.00;;;;;;;;5453334;26;8843;-81
2024/04/17 10:04:43;;;;;;;;;2.25;0.00;;;;;;;;5443564;26;9566;-84
2024/04/17 10:07:14;;;;;;;;;0.25;0.25;;;;;;;;5437867;26;8869;-81
2024/04/17 10:09:45;;;;;;;;;0.00;0.00;;;;;;;;5450180;26;8855;-81
2024/04/17 10:12:13;;;;;;;;;0.00;0.00;;;;;;;;5450894;26;8860;-81
2024/04/17 10:14:42;;;;;;;;;1.00;1.00;;;;;;;;5429867;26;8828;-83
2024/04/17 10:17:12;;;;;;;;;0.25;0.25;;;;;;;;5456190;26;8893;-80
2024/04/17 10:19:41;;;;;;;;;0.00;0.00;;;;;;;;5438656;26;8828;-83
2024/04/17 10:22:16;;;;;;;;;0.00;0.00;;;;;;;;5457607;26;9726;-85
2024/04/17 10:24:46;;;;;;;;;0.75;0.75;;;;;;;;5451113;26;8808;-84
2024/04/17 10:27:16;;;;;;;;;0.00;0.00;;;;;;;;5439863;26;8832;-79
2024/04/17 10:29:45;;;;;;;;;0.00;0.00;;;;;;;;5447923;26;8816;-77
2024/04/17 10:32:15;;;;;;;;;1.00;1.00;;;;;;;;5434382;26;8808;-79
2024/04/17 10:34:48;;;;;;;;;1.00;1.00;;;;;;;;5437817;26;8876;-79
2024/04/17 10:37:16;;;;;;;;;1.00;1.00;;;;;;;;5440799;26;8888;-79
2024/04/17 10:39:45;;;;;;;;;0.25;0.25;;;;;;;;5450025;26;8836;-78
2024/04/17 10:42:16;;;;;;;;;0.00;0.00;;;;;;;;5450135;26;8840;-78
2024/04/17 10:44:49;;;;;;;;;1.25;1.25;;;;;;;;5449547;26;8852;-79
2024/04/17 10:47:24;;;;;;;;;1.00;1.00;;;;;;;;5440825;26;8828;-80
2024/04/17 10:50:02;;;;;;;;;1.00;1.00;;;;;;;;5444037;26;9042;-79
2024/04/17 10:52:32;;;;;;;;;1.25;1.00;;;;;;;;5449588;26;8989;-79
2024/04/17 10:55:04;;;;;;;;;2.00;2.00;;;;;;;;5448372;26;8855;-78
2024/04/17 10:57:33;;;;;;;;;2.00;1.00;;;;;;;;5450318;26;8989;-79
2024/04/17 11:00:00;;;;;;;;;1.00;1.00;;;;;;;;5450130;26;8876;-78
2024/04/17 11:02:31;;;;;;;;;1.00;1.00;;;;;;;;5426974;26;8781;-79
2024/04/17 11:04:58;;;;;;;;;2.00;2.00;;;;;;;;5450079;26;8844;-80
2024/04/17 11:07:27;;;;;;;;;1.75;1.00;;;;;;;;5449714;26;8785;-82
2024/04/17 11:09:59;;;;;;;;;3.25;3.25;;;;;;;;5429049;26;8824;-82
2024/04/17 11:12:28;;;;;;;;;1.75;1.75;;;;;;;;5447400;26;8840;-84
2024/04/17 11:15:01;;;;;;;;;1.00;1.00;;;;;;;;5431434;26;9011;-83
2024/04/17 11:17:34;;;;;;;;;2.25;1.00;;;;;;;;5450954;26;8856;-86
2024/04/17 11:20:08;;;;;;;;;0.00;0.00;;;;;;;;5451552;26;8844;-86
2024/04/17 11:22:38;;;;;;;;;1.00;1.00;;;;;;;;5452073;26;9011;-87
2024/04/17 11:25:12;;;;;;;;;1.00;1.00;;;;;;;;5452551;26;9283;-82
2024/04/17 11:27:41;;;;;;;;;2.75;1.00;;;;;;;;5429167;26;9543;-89
2024/04/17 11:30:18;;;;;;;;;0.75;0.75;;;;;;;;5452395;26;9477;-78
2024/04/17 11:32:50;;;;;;;;;0.00;0.00;;;;;;;;5446309;26;9803;-84
2024/04/17 11:35:16;;;;;;;;;1.00;1.00;;;;;;;;5441714;26;9638;-84
2024/04/17 11:38:13;;;;;;;;;1.25;1.25;;;;;;;;5451166;26;9736;-85
2024/04/17 11:40:43;;;;;;;;;1.00;1.00;;;;;;;;5438469;26;9918;-84
2024/04/17 11:43:20;;;;;;;;;0.00;0.00;;;;;;;;5441017;26;9824;-83
2024/04/17 11:45:48;;;;;;;;;1.00;1.00;;;;;;;;5439126;26;9754;-81
2024/04/17 11:48:24;;;;;;;;;0.00;0.00;;;;;;;;5439426;26;10461;-81
2024/04/17 11:50:50;;;;;;;;;0.25;0.25;;;;;;;;5449554;26;9783;-82
2024/04/17 11:53:19;;;;;;;;;0.50;0.50;;;;;;;;5449254;26;9784;-84
2024/04/17 11:55:52;;;;;;;;;2.00;0.00;;;;;;;;5450153;26;9622;-81
2024/04/17 11:58:21;;;;;;;;;0.00;0.00;;;;;;;;5429332;26;9626;-81
2024/04/17 12:00:49;;;;;;;;;1.33;0.00;;;;;;;;5453669;26;10168;-82
2024/04/17 12:03:38;;;;;;;;;0.00;0.00;;;;;;;;5439162;26;9261;-85
2024/04/17 12:06:06;;;;;;;;;0.00;0.00;;;;;;;;5438830;26;9105;-82
2024/04/17 12:08:35;;;;;;;;;1.00;1.00;;;;;;;;5414721;26;8913;-81
2024/04/17 12:11:03;;;;;;;;;0.00;0.00;;;;;;;;5415382;26;8808;-82
2024/04/17 12:13:36;;;;;;;;;1.00;1.00;;;;;;;;5435071;26;8882;-81
2024/04/17 12:16:03;;;;;;;;;1.00;1.00;;;;;;;;5449624;26;8861;-84
2024/04/17 12:18:38;;;;;;;;;2.75;1.00;;;;;;;;5450913;26;8792;-82
2024/04/17 12:21:08;;;;;;;;;0.00;0.00;;;;;;;;5414591;26;8836;-85
2024/04/17 12:23:37;;;;;;;;;0.00;0.00;;;;;;;;5438639;26;8855;-82
2024/04/17 12:28:55;;;;;;;;;0.00;0.00;;;;;;;;5452174;26;8788;-84
2024/04/17 12:31:24;;;;;;;;;0.00;0.00;;;;;;;;5448152;26;8846;-80
2024/04/17 12:33:55;;;;;;;;;0.00;0.00;;;;;;;;5448344;26;8883;-81
2024/04/17 12:36:24;;;;;;;;;0.00;0.00;;;;;;;;5448904;26;8835;-83
2024/04/17 12:38:53;;;;;;;;;0.50;0.50;;;;;;;;5448423;26;8864;-82
2024/04/17 12:41:22;;;;;;;;;0.00;0.00;;;;;;;;5448481;26;8866;-80
2024/04/17 12:43:51;;;;;;;;;2.00;1.00;;;;;;;;5426706;26;8954;-82
2024/04/17 12:46:20;;;;;;;;;1.00;1.00;;;;;;;;5448973;26;8828;-83
2024/04/17 12:48:46;;;;;;;;;0.00;0.00;;;;;;;;5448565;26;8824;-82
2024/04/17 12:51:21;;;;;;;;;1.00;1.00;;;;;;;;5448521;26;8836;-81
2024/04/17 12:53:55;;;;;;;;;0.00;0.00;;;;;;;;5434657;26;8883;-83
2024/04/17 12:56:21;;;;;;;;;1.75;1.00;;;;;;;;5436633;26;8902;-81
2024/04/17 12:58:50;;;;;;;;;0.00;0.00;;;;;;;;5432384;26;8852;-89
2024/04/17 13:01:16;;;;;;;;;1.00;1.00;;;;;;;;5448882;26;8780;-84
2024/04/17 13:03:45;;;;;;;;;0.00;0.00;;;;;;;;5431330;26;8832;-86
2024/04/17 13:06:13;;;;;;;;;0.75;0.75;;;;;;;;5419545;26;8824;-81
2024/04/17 13:08:47;;;;;;;;;0.00;0.00;;;;;;;;5417089;26;8832;-86
2024/04/17 13:11:16;;;;;;;;;0.50;0.50;;;;;;;;5450046;26;8880;-84
2024/04/17 13:13:46;;;;;;;;;0.25;0.25;;;;;;;;5452504;26;8836;-87
2024/04/17 13:16:12;;;;;;;;;0.00;0.00;;;;;;;;5450485;26;8847;-87
2024/04/17 13:18:42;;;;;;;;;2.00;2.00;;;;;;;;5447689;26;8882;-89
2024/04/17 13:21:08;;;;;;;;;0.00;0.00;;;;;;;;5452446;26;8942;-87
2024/04/17 13:23:38;;;;;;;;;0.00;0.00;;;;;;;;5452314;26;8832;-86
2024/04/17 13:26:07;;;;;;;;;0.00;0.00;;;;;;;;5452986;26;8918;-87
2024/04/17 13:28:36;;;;;;;;;0.00;0.00;;;;;;;;5448672;26;9690;-84
2024/04/17 13:31:05;;;;;;;;;0.00;0.00;;;;;;;;5448577;26;8781;-81
2024/04/17 13:33:40;;;;;;;;;0.00;0.00;;;;;;;;5446565;26;8905;-81
2024/04/17 13:36:08;;;;;;;;;0.00;0.00;;;;;;;;5431960;26;8832;-81
2024/04/17 13:38:38;;;;;;;;;0.00;0.00;;;;;;;;5447709;26;8900;-82
2024/04/17 13:41:09;;;;;;;;;0.00;0.00;;;;;;;;5446856;26;9798;-84
2024/04/17 13:43:53;;;;;;;;;0.00;0.00;;;;;;;;5448427;26;8820;-82
2024/04/17 13:46:22;;;;;;;;;0.00;0.00;;;;;;;;5444916;26;8856;-84
2024/04/17 13:48:50;;;;;;;;;0.00;0.00;;;;;;;;5448222;26;8804;-85
2024/04/17 13:51:17;;;;;;;;;0.25;0.25;;;;;;;;5448497;26;8847;-83
2024/04/17 13:53:50;;;;;;;;;0.00;0.00;;;;;;;;5447886;26;9636;-81
2024/04/17 13:56:20;;;;;;;;;0.00;0.00;;;;;;;;5448372;26;8852;-81
2024/04/17 13:58:50;;;;;;;;;0.00;0.00;;;;;;;;5448303;26;8871;-80
2024/04/17 14:01:17;;;;;;;;;0.00;0.00;;;;;;;;5448353;26;8807;-83
2024/04/17 14:03:50;;;;;;;;;0.00;0.00;;;;;;;;5448237;26;8823;-81
2024/04/17 14:06:19;;;;;;;;;0.00;0.00;;;;;;;;5447697;26;8828;-82
2024/04/17 14:09:01;;;;;;;;;;;;;;;;;;;;;
2024/04/17 14:11:33;;;;;;;;;0.00;0.00;;;;;;;;5437367;26;8840;-80
2024/04/17 14:14:02;;;;;;;;;0.00;0.00;;;;;;;;5439370;26;8784;-85
2024/04/17 14:16:31;;;;;;;;;0.00;0.00;;;;;;;;5435449;26;8847;-80
2024/04/17 14:19:03;;;;;;;;;0.00;0.00;;;;;;;;5439465;26;8941;-83
2024/04/17 14:21:32;;;;;;;;;0.50;0.00;;;;;;;;5430054;26;8856;-81
2024/04/17 14:24:04;;;;;;;;;2.00;1.00;;;;;;;;5443294;26;8828;-81
2024/04/17 14:26:38;;;;;;;;;0.00;0.00;;;;;;;;5432664;26;8832;-79
2024/04/17 14:29:07;;;;;;;;;0.00;0.00;;;;;;;;5443724;26;8840;-81
2024/04/17 14:31:33;;;;;;;;;0.00;0.00;;;;;;;;5439147;26;8823;-84
2024/04/17 14:34:02;;;;;;;;;0.00;0.00;;;;;;;;5442394;26;8847;-85
2024/04/17 14:36:28;;;;;;;;;0.00;0.00;;;;;;;;5419955;26;8847;-80
2024/04/17 14:38:57;;;;;;;;;0.00;0.00;;;;;;;;5422997;26;8882;-75
2024/04/17 14:41:23;;;;;;;;;0.00;0.00;;;;;;;;5420840;26;8859;-79
2024/04/17 14:43:55;;;;;;;;;0.00;0.00;;;;;;;;5441270;26;8824;-77
2024/04/17 14:46:21;;;;;;;;;0.00;0.00;;;;;;;;5423253;26;8851;-79
2024/04/17 14:48:50;;;;;;;;;0.00;0.00;;;;;;;;5450829;26;8844;-81
2024/04/17 14:51:18;;;;;;;;;0.00;0.00;;;;;;;;5450234;26;8856;-82
2024/04/17 14:53:47;;;;;;;;;0.00;0.00;;;;;;;;5450176;26;8996;-81
2024/04/17 14:56:13;;;;;;;;;0.00;0.00;;;;;;;;5452488;26;9078;-80
2024/04/17 14:58:42;;;;;;;;;1.00;0.00;;;;;;;;5439058;26;8952;-81
2024/04/17 15:01:12;;;;;;;;;0.00;0.00;;;;;;;;5422048;26;9079;-80
2024/04/17 15:03:41;;;;;;;;;0.00;0.00;;;;;;;;5435102;26;8947;-80
2024/04/17 15:06:09;;;;;;;;;0.00;0.00;;;;;;;;5429333;26;9181;-82